Time;durP1;ratioP1;P1;durP2;ratioP2;P2;SDS_P1;SDS_P2;PMS_P1;PMS_P2;Temp;Humidity;BMP_temperature;BMP_pressure;BME280_temperature;BME280_humidity;BME280_pressure;Samples;Min_cycle;Max_cycle;Signal;HPM_P1;HPM_P2
2022/01/21 00:01:52;;;;;;;14.93;7.60;;;2.90;99.90;;;;;;5068182;28;20044;-79
2022/01/21 00:04:20;;;;;;;12.57;6.68;;;2.90;99.90;;;;;;5060961;28;20069;-77
2022/01/21 00:06:47;;;;;;;12.90;6.28;;;2.90;99.90;;;;;;5061205;28;20063;-77
2022/01/21 00:09:15;;;;;;;18.02;9.00;;;2.90;99.90;;;;;;5061639;28;20085;-77
2022/01/21 00:11:42;;;;;;;28.63;14.18;;;2.90;99.90;;;;;;5061736;28;20083;-78
2022/01/21 00:14:10;;;;;;;9.48;4.97;;;3.00;99.90;;;;;;5061557;28;20057;-77
2022/01/21 00:16:39;;;;;;;9.50;5.55;;;3.00;99.90;;;;;;5060802;28;20041;-77
2022/01/21 00:19:11;;;;;;;9.98;5.38;;;2.90;99.90;;;;;;5060413;28;20040;-76
2022/01/21 00:30:11;;;;;;;17.52;8.55;;;3.00;99.90;;;;;;5061735;28;20399;-75
2022/01/21 00:32:39;;;;;;;15.65;8.20;;;3.10;99.90;;;;;;5061527;28;20060;-77
2022/01/21 00:35:09;;;;;;;10.50;6.18;;;3.20;99.90;;;;;;5059856;28;20041;-78
2022/01/21 00:37:38;;;;;;;16.25;8.15;;;3.20;99.90;;;;;;5060270;28;20163;-77
2022/01/21 00:40:08;;;;;;;16.55;8.02;;;3.30;99.90;;;;;;5060005;28;20121;-78
2022/01/21 00:42:51;;;;;;;15.30;8.10;;;3.30;99.90;;;;;;5075651;28;20416;-78
2022/01/21 00:45:20;;;;;;;17.38;9.80;;;3.40;99.90;;;;;;5057043;28;20045;-76
2022/01/21 00:47:48;;;;;;;21.45;10.77;;;3.40;99.90;;;;;;5057507;28;20071;-76
2022/01/21 00:50:17;;;;;;;22.48;11.68;;;3.50;99.90;;;;;;5058799;28;20044;-76
2022/01/21 00:52:45;;;;;;;20.42;10.63;;;3.50;99.90;;;;;;5058586;28;20071;-77
2022/01/21 00:55:12;;;;;;;19.58;9.88;;;3.50;99.90;;;;;;5058038;28;20047;-76
2022/01/21 00:57:40;;;;;;;22.95;12.80;;;3.40;99.90;;;;;;5057620;28;20087;-76
2022/01/21 01:00:11;;;;;;;25.35;13.95;;;3.40;99.90;;;;;;5058127;28;20139;-76
2022/01/21 01:02:39;;;;;;;35.33;20.48;;;3.40;99.90;;;;;;5058882;28;20554;-77
2022/01/21 01:05:09;;;;;;;31.50;17.73;;;3.50;99.90;;;;;;5057062;28;20045;-77
2022/01/21 01:07:39;;;;;;;26.88;13.50;;;3.40;99.90;;;;;;5058622;28;20491;-76
2022/01/21 01:10:10;;;;;;;27.83;12.50;;;3.40;99.90;;;;;;5057589;28;20409;-76
2022/01/21 01:12:51;;;;;;;21.45;12.02;;;3.30;99.90;;;;;;5057599;28;20132;-76
2022/01/21 01:20:51;;;;;;;22.17;11.48;;;3.20;99.90;;;;;;5069954;28;20047;-77
2022/01/21 01:23:36;;;;;;;28.73;15.55;;;3.20;99.90;;;;;;5067823;28;20076;-76
2022/01/21 01:28:49;;;;;;;30.57;15.87;;;3.10;99.90;;;;;;5055961;28;20504;-76
2022/01/21 01:31:17;;;;;;;25.90;13.57;;;2.90;99.90;;;;;;5057125;28;20043;-77
2022/01/21 01:33:45;;;;;;;22.63;12.35;;;2.80;99.90;;;;;;5056392;28;20041;-76
2022/01/21 01:36:12;;;;;;;16.70;8.57;;;2.60;99.90;;;;;;5056821;28;20045;-76
2022/01/21 01:41:35;;;;;;;15.98;9.00;;;2.60;99.90;;;;;;5051978;28;20119;-81
2022/01/21 01:49:36;;;;;;;17.48;11.18;;;2.60;99.90;;;;;;5063154;28;20048;-76
2022/01/21 01:52:06;;;;;;;21.92;12.68;;;2.60;99.90;;;;;;5059170;28;20119;-77
2022/01/21 01:54:38;;;;;;;22.38;12.68;;;2.60;99.90;;;;;;5056584;28;20526;-76
2022/01/21 01:57:07;;;;;;;24.70;14.52;;;2.60;99.90;;;;;;5056028;28;20053;-78
2022/01/21 01:59:35;;;;;;;28.40;16.13;;;2.60;99.90;;;;;;5057620;28;20049;-76
2022/01/21 02:02:04;;;;;;;30.42;17.85;;;2.60;99.90;;;;;;5049378;28;20574;-76
2022/01/21 02:04:32;;;;;;;28.20;15.63;;;2.60;99.90;;;;;;5047852;28;20045;-76
2022/01/21 02:07:00;;;;;;;27.80;15.77;;;2.50;99.90;;;;;;5051595;28;20520;-76
2022/01/21 02:09:28;;;;;;;28.63;16.80;;;2.40;99.90;;;;;;5057463;28;20041;-76
2022/01/21 02:11:57;;;;;;;24.98;14.13;;;2.40;99.90;;;;;;5058031;28;20049;-76
2022/01/21 02:14:29;;;;;;;24.67;14.73;;;2.40;99.90;;;;;;5057556;28;20128;-76
2022/01/21 02:17:14;;;;;;;25.40;14.80;;;2.40;99.90;;;;;;5056374;28;20045;-76
2022/01/21 02:22:33;;;;;;;23.52;14.55;;;2.50;99.90;;;;;;5069985;28;20535;-77
2022/01/21 02:25:15;;;;;;;20.45;13.70;;;2.60;99.90;;;;;;5036031;28;20045;-77
2022/01/21 02:27:44;;;;;;;23.88;14.98;;;2.60;99.90;;;;;;5036513;28;20049;-76
2022/01/21 02:30:18;;;;;;;22.85;15.27;;;2.60;99.90;;;;;;5062985;28;20067;-77
2022/01/21 02:32:48;;;;;;;29.38;17.42;;;2.50;99.90;;;;;;5077441;28;20050;-78
2022/01/21 02:35:16;;;;;;;30.33;17.83;;;2.40;99.90;;;;;;5080814;28;20107;-78
2022/01/21 02:37:46;;;;;;;28.17;17.27;;;2.30;99.90;;;;;;5082355;28;20055;-78
2022/01/21 02:40:15;;;;;;;28.63;18.00;;;2.30;99.90;;;;;;5082768;28;20068;-78
2022/01/21 02:42:44;;;;;;;31.45;18.05;;;2.30;99.90;;;;;;5082945;28;20369;-78
2022/01/21 02:45:14;;;;;;;26.67;16.70;;;2.30;99.90;;;;;;5066881;28;20135;-78
2022/01/21 02:47:42;;;;;;;25.55;16.58;;;2.40;99.90;;;;;;5064106;28;20075;-78
2022/01/21 02:50:11;;;;;;;24.85;16.10;;;2.50;99.90;;;;;;5077165;28;20048;-79
2022/01/21 02:52:54;;;;;;;27.42;17.58;;;2.50;99.90;;;;;;5059163;28;20045;-78
2022/01/21 02:55:32;;;;;;;26.10;16.38;;;2.50;99.90;;;;;;4999561;28;20048;-78
2022/01/21 02:57:59;;;;;;;23.27;15.45;;;2.40;99.90;;;;;;4983367;28;20449;-79
2022/01/21 03:00:27;;;;;;;26.15;15.85;;;2.40;99.90;;;;;;4986409;28;20058;-79
2022/01/21 03:02:55;;;;;;;24.98;16.75;;;2.40;99.90;;;;;;5001893;28;20061;-78
2022/01/21 03:05:23;;;;;;;25.55;16.13;;;2.40;99.90;;;;;;5006186;28;20042;-79
2022/01/21 03:07:50;;;;;;;24.42;16.02;;;2.40;99.90;;;;;;5005227;28;20500;-78
2022/01/21 03:10:18;;;;;;;23.30;15.27;;;2.40;99.90;;;;;;5022857;28;20050;-78
2022/01/21 03:12:47;;;;;;;25.73;16.40;;;2.50;99.90;;;;;;5028777;28;20046;-78
2022/01/21 03:15:15;;;;;;;23.10;15.25;;;2.50;99.90;;;;;;5063540;28;20071;-77
2022/01/21 03:17:43;;;;;;;23.98;16.60;;;2.50;99.90;;;;;;5064004;28;20063;-79
2022/01/21 03:20:11;;;;;;;27.25;17.98;;;2.60;99.90;;;;;;5064163;28;20095;-75
2022/01/21 03:22:39;;;;;;;26.77;18.00;;;2.60;99.90;;;;;;5062309;28;20053;-78
2022/01/21 03:25:08;;;;;;;27.27;16.10;;;2.60;99.90;;;;;;5062006;28;20109;-81
2022/01/21 03:27:36;;;;;;;22.33;15.60;;;2.70;99.90;;;;;;5062522;28;20040;-81
2022/01/21 03:30:09;;;;;;;23.40;16.10;;;2.70;99.90;;;;;;5062131;28;20044;-80
2022/01/21 03:32:43;;;;;;;21.98;14.88;;;2.70;99.90;;;;;;5063232;28;20049;-81
2022/01/21 03:35:13;;;;;;;23.95;14.75;;;2.60;99.90;;;;;;5062262;28;20070;-81
2022/01/21 03:37:40;;;;;;;24.88;15.55;;;2.50;99.90;;;;;;5056240;28;20496;-81
2022/01/21 03:40:09;;;;;;;23.33;14.35;;;2.50;99.90;;;;;;5056250;28;20053;-81
2022/01/21 03:42:37;;;;;;;31.25;18.40;;;2.40;99.90;;;;;;5054777;28;20140;-80
2022/01/21 03:45:07;;;;;;;32.45;20.00;;;2.30;99.90;;;;;;5058095;28;20132;-80
2022/01/21 03:47:34;;;;;;;35.50;22.38;;;2.30;99.90;;;;;;5059852;28;20116;-80
2022/01/21 03:50:19;;;;;;;31.75;20.17;;;2.30;99.90;;;;;;5053160;28;20587;-78
2022/01/21 03:52:47;;;;;;;32.15;19.80;;;2.20;99.90;;;;;;5052720;28;20052;-79
2022/01/21 03:55:15;;;;;;;27.13;18.48;;;2.20;99.90;;;;;;5062840;28;20047;-79
2022/01/21 03:57:43;;;;;;;40.33;22.80;;;2.10;99.90;;;;;;5077829;28;20028;-81
2022/01/21 04:00:15;;;;;;;42.35;25.05;;;2.00;99.90;;;;;;5077816;28;20047;-79
2022/01/21 04:02:43;;;;;;;39.50;23.73;;;2.00;99.90;;;;;;5057923;28;20052;-79
2022/01/21 04:05:16;;;;;;;46.83;27.70;;;1.90;99.90;;;;;;5066274;28;20516;-79
2022/01/21 04:07:44;;;;;;;50.13;33.08;;;1.80;99.90;;;;;;5055421;28;20119;-78
2022/01/21 04:10:12;;;;;;;53.15;31.58;;;1.80;99.90;;;;;;5052880;28;20413;-79
2022/01/21 04:12:40;;;;;;;53.63;34.50;;;1.70;99.90;;;;;;5052689;28;20053;-78
2022/01/21 04:15:09;;;;;;;56.03;34.70;;;1.70;99.90;;;;;;5052214;28;20133;-79
2022/01/21 04:17:38;;;;;;;46.08;29.30;;;1.80;99.90;;;;;;5052772;28;20053;-79
2022/01/21 04:20:08;;;;;;;49.90;30.75;;;1.70;99.90;;;;;;5055051;28;20053;-80
2022/01/21 04:22:37;;;;;;;45.72;29.55;;;1.70;99.90;;;;;;5055709;28;20484;-79
2022/01/21 04:25:05;;;;;;;48.03;31.20;;;1.80;99.90;;;;;;5044312;28;20054;-79
2022/01/21 04:27:33;;;;;;;56.28;33.67;;;1.80;99.90;;;;;;5035744;28;20132;-79
2022/01/21 04:30:01;;;;;;;68.47;39.33;;;1.90;99.90;;;;;;5036426;28;20508;-79
2022/01/21 04:32:32;;;;;;;50.90;31.92;;;1.90;99.90;;;;;;5035896;28;20045;-79
2022/01/21 04:35:03;;;;;;;40.33;24.98;;;1.90;99.90;;;;;;5036356;28;20076;-78
2022/01/21 04:37:31;;;;;;;29.10;18.92;;;1.80;99.90;;;;;;5040119;28;20053;-79
2022/01/21 04:40:05;;;;;;;36.55;20.20;;;1.70;99.90;;;;;;5043920;28;20056;-79
2022/01/21 04:48:03;;;;;;;36.83;24.55;;;1.70;99.90;;;;;;5056454;28;20063;-78
2022/01/21 04:50:40;;;;;;;38.60;23.55;;;1.80;99.90;;;;;;5057936;28;20072;-79
2022/01/21 04:53:10;;;;;;;37.33;23.48;;;1.90;99.90;;;;;;5061058;28;20515;-80
2022/01/21 04:55:46;;;;;;;30.98;20.92;;;1.90;99.90;;;;;;5066177;28;20139;-80
2022/01/21 04:58:15;;;;;;;37.67;24.08;;;2.00;99.90;;;;;;5069577;28;20064;-80
2022/01/21 05:00:48;;;;;;;44.03;26.73;;;2.00;99.90;;;;;;5076030;28;20045;-80
2022/01/21 05:03:17;;;;;;;49.17;29.27;;;2.00;99.90;;;;;;5075085;28;20055;-79
2022/01/21 05:05:46;;;;;;;45.38;28.52;;;2.00;99.90;;;;;;5068198;28;20053;-80
2022/01/21 05:08:23;;;;;;;50.63;31.35;;;2.00;99.90;;;;;;5076779;28;20045;-81
2022/01/21 05:10:51;;;;;;;55.40;33.50;;;2.00;99.90;;;;;;5076944;28;20041;-81
2022/01/21 05:13:23;;;;;;;57.67;34.72;;;2.00;99.90;;;;;;5078247;28;20056;-80
2022/01/21 05:16:03;;;;;;;45.80;29.65;;;1.90;99.90;;;;;;5069156;28;20029;-81
2022/01/21 05:18:31;;;;;;;48.05;28.52;;;1.90;99.90;;;;;;5060524;28;20049;-81
2022/01/21 05:21:19;;;;;;;71.13;38.40;;;1.90;99.90;;;;;;5061381;28;20071;-78
2022/01/21 05:24:05;;;;;;;68.43;36.15;;;1.80;99.90;;;;;;5058285;28;20053;-79
2022/01/21 05:26:36;;;;;;;77.57;43.08;;;1.70;99.90;;;;;;5065253;28;20071;-79
2022/01/21 05:29:05;;;;;;;62.10;36.67;;;1.70;99.90;;;;;;5076250;28;20056;-79
2022/01/21 05:31:52;;;;;;;100.85;49.97;;;1.70;99.90;;;;;;5069073;28;20076;-79
2022/01/21 05:34:38;;;;;;;112.43;55.45;;;1.70;99.90;;;;;;5059780;28;20491;-77
2022/01/21 05:37:30;;;;;;;134.73;61.67;;;1.70;99.90;;;;;;5060371;28;20073;-78
2022/01/21 05:40:09;;;;;;;150.00;68.45;;;1.70;99.90;;;;;;5058546;28;20064;-79
2022/01/21 05:43:00;;;;;;;170.90;72.40;;;1.70;99.90;;;;;;5055068;28;20053;-78
2022/01/21 05:48:49;;;;;;;170.85;78.40;;;1.80;99.90;;;;;;5058264;28;20535;-79
2022/01/21 05:51:40;;;;;;;176.10;87.22;;;1.80;99.90;;;;;;5060074;28;20061;-79
2022/01/21 05:54:29;;;;;;;355.23;147.70;;;1.80;99.90;;;;;;5040137;28;20052;-79
2022/01/21 05:57:19;;;;;;;216.20;101.65;;;1.70;99.90;;;;;;5063522;28;20060;-77
2022/01/21 05:59:50;;;;;;;241.10;104.85;;;1.80;99.90;;;;;;5052270;28;20548;-77
2022/01/21 06:02:18;;;;;;;217.07;97.13;;;1.70;99.90;;;;;;5035435;28;20531;-79
2022/01/21 06:04:49;;;;;;;118.32;62.25;;;1.80;99.90;;;;;;5036117;28;20129;-77
2022/01/21 06:07:17;;;;;;;130.38;69.85;;;1.80;99.90;;;;;;5036632;28;20037;-78
2022/01/21 06:09:49;;;;;;;156.65;86.05;;;1.80;99.90;;;;;;5045709;28;20050;-78
2022/01/21 06:12:16;;;;;;;172.48;93.70;;;1.80;99.90;;;;;;5053925;28;20053;-80
2022/01/21 06:14:44;;;;;;;196.07;103.88;;;1.70;99.90;;;;;;5060540;28;20102;-77
2022/01/21 06:17:12;;;;;;;183.95;96.30;;;1.70;99.90;;;;;;5053696;28;20400;-79
2022/01/21 06:19:40;;;;;;;182.35;97.20;;;1.70;99.90;;;;;;5055739;28;20087;-79
2022/01/21 06:22:08;;;;;;;226.73;116.38;;;1.70;99.90;;;;;;5055032;28;20056;-78
2022/01/21 06:24:47;;;;;;;166.57;90.10;;;1.70;99.90;;;;;;5071289;28;20317;-76
2022/01/21 06:27:18;;;;;;;125.05;69.63;;;1.70;99.90;;;;;;5066229;28;20040;-78
2022/01/21 06:29:46;;;;;;;140.73;72.47;;;1.80;99.90;;;;;;5084290;28;20064;-79
2022/01/21 06:32:14;;;;;;;186.30;97.45;;;1.90;99.90;;;;;;5069235;28;20059;-77
2022/01/21 06:34:41;;;;;;;159.00;87.38;;;1.90;99.90;;;;;;5067907;28;20044;-77
2022/01/21 06:37:09;;;;;;;169.95;96.63;;;1.90;99.90;;;;;;5071690;28;20103;-77
2022/01/21 06:39:36;;;;;;;208.95;116.60;;;2.00;99.90;;;;;;5081333;28;20097;-77
2022/01/21 06:42:04;;;;;;;221.15;120.15;;;1.90;99.90;;;;;;5088574;28;20036;-77
2022/01/21 06:44:33;;;;;;;195.95;112.53;;;2.00;99.90;;;;;;5077953;28;20071;-77
2022/01/21 06:47:01;;;;;;;230.05;128.77;;;2.00;99.90;;;;;;5079662;28;20127;-77
2022/01/21 06:49:29;;;;;;;211.80;118.05;;;1.90;99.90;;;;;;5080160;28;20109;-77
2022/01/21 06:51:56;;;;;;;193.27;110.28;;;1.90;99.90;;;;;;5070752;28;20139;-77
2022/01/21 06:54:23;;;;;;;159.18;93.13;;;2.00;99.90;;;;;;5079919;28;20044;-76
2022/01/21 06:56:51;;;;;;;161.48;93.65;;;2.00;99.90;;;;;;5097183;28;20043;-76
2022/01/21 06:59:18;;;;;;;158.80;92.70;;;2.10;99.90;;;;;;5100541;28;20040;-76
2022/01/21 07:01:48;;;;;;;140.43;80.18;;;2.10;99.90;;;;;;5097691;28;20407;-76
2022/01/21 07:04:15;;;;;;;120.15;70.40;;;2.10;99.90;;;;;;5096612;28;20070;-76
2022/01/21 07:06:43;;;;;;;122.90;72.72;;;2.20;99.90;;;;;;5098005;28;20491;-77
2022/01/21 07:09:10;;;;;;;127.68;78.13;;;2.30;99.90;;;;;;5097821;28;20040;-76
2022/01/21 07:11:38;;;;;;;143.07;85.38;;;2.40;99.90;;;;;;5090336;28;20036;-77
2022/01/21 07:14:05;;;;;;;143.55;85.53;;;2.50;99.90;;;;;;5099504;28;20036;-76
2022/01/21 07:16:33;;;;;;;205.70;118.03;;;2.50;99.90;;;;;;5099190;28;20060;-77
2022/01/21 07:19:02;;;;;;;197.75;114.47;;;2.40;99.90;;;;;;5101004;28;20414;-77
2022/01/21 07:21:29;;;;;;;187.63;108.80;;;2.50;99.90;;;;;;5099353;28;20127;-76
2022/01/21 07:23:57;;;;;;;193.05;110.05;;;2.60;99.90;;;;;;5098449;28;20071;-77
2022/01/21 07:26:24;;;;;;;193.10;110.78;;;2.60;99.90;;;;;;5099266;28;20056;-77
2022/01/21 07:28:52;;;;;;;221.13;126.60;;;2.60;99.90;;;;;;5099705;28;20072;-76
2022/01/21 07:31:19;;;;;;;229.02;129.85;;;2.70;99.90;;;;;;5090272;28;20118;-77
2022/01/21 07:33:47;;;;;;;198.25;110.13;;;2.80;99.90;;;;;;5068087;28;20080;-78
2022/01/21 07:36:16;;;;;;;144.68;77.97;;;3.00;99.90;;;;;;5093106;28;20032;-78
2022/01/21 07:38:43;;;;;;;74.18;37.70;;;3.00;99.90;;;;;;5095878;28;20044;-77
2022/01/21 07:41:11;;;;;;;40.05;20.25;;;2.90;99.90;;;;;;5080073;28;20098;-77
2022/01/21 07:43:38;;;;;;;31.65;13.85;;;2.70;99.90;;;;;;5088270;28;20035;-77
2022/01/21 07:46:06;;;;;;;51.17;19.40;;;2.70;99.90;;;;;;5097683;28;20040;-78
2022/01/21 07:48:33;;;;;;;31.83;15.80;;;2.70;99.90;;;;;;5097407;28;20048;-78
2022/01/21 07:51:01;;;;;;;35.17;14.43;;;2.80;99.90;;;;;;5074484;28;20105;-79
2022/01/21 07:53:30;;;;;;;27.00;13.10;;;3.00;99.90;;;;;;5097771;28;20040;-79
2022/01/21 07:55:57;;;;;;;28.92;12.75;;;3.10;99.90;;;;;;5083780;28;20044;-80
2022/01/21 07:58:25;;;;;;;31.95;15.85;;;3.20;99.90;;;;;;5082810;28;20055;-81
2022/01/21 08:00:52;;;;;;;34.63;16.88;;;3.20;99.90;;;;;;5085001;28;20056;-79
2022/01/21 08:03:23;;;;;;;34.42;17.80;;;3.20;99.90;;;;;;5104080;28;20127;-78
2022/01/21 08:05:51;;;;;;;36.97;17.48;;;3.20;99.90;;;;;;5103474;28;20043;-80
2022/01/21 08:08:19;;;;;;;34.60;18.38;;;3.30;99.90;;;;;;5104174;28;20119;-78
2022/01/21 08:10:48;;;;;;;32.22;15.55;;;3.10;99.90;;;;;;5105917;28;20038;-77
2022/01/21 08:13:16;;;;;;;31.48;15.70;;;3.00;99.90;;;;;;5120171;28;20036;-77
2022/01/21 08:15:43;;;;;;;29.35;14.60;;;2.90;99.90;;;;;;5120627;28;20026;-80
2022/01/21 08:18:10;;;;;;;35.13;16.48;;;3.00;99.90;;;;;;5107601;28;20114;-76
2022/01/21 08:20:38;;;;;;;34.80;16.95;;;3.10;99.90;;;;;;5104173;28;20420;-78
2022/01/21 08:23:06;;;;;;;33.90;17.25;;;3.20;99.90;;;;;;5100219;28;20052;-79
2022/01/21 08:25:33;;;;;;;33.38;15.48;;;3.40;99.90;;;;;;5102351;28;20271;-79
2022/01/21 08:28:02;;;;;;;29.52;13.65;;;3.70;99.90;;;;;;5081648;28;20048;-79
2022/01/21 08:30:30;;;;;;;34.60;16.23;;;3.90;99.90;;;;;;5080872;28;20498;-78
2022/01/21 08:32:57;;;;;;;25.40;14.07;;;4.20;99.90;;;;;;5098564;28;20128;-77
2022/01/21 08:35:25;;;;;;;21.70;11.35;;;4.30;99.90;;;;;;5098296;28;20064;-78
2022/01/21 08:37:53;;;;;;;23.42;12.57;;;4.20;99.90;;;;;;5098775;28;20122;-77
2022/01/21 08:40:21;;;;;;;22.10;10.88;;;4.30;99.90;;;;;;5098289;28;20444;-79
2022/01/21 08:42:48;;;;;;;25.90;13.48;;;4.20;99.90;;;;;;5097319;28;20036;-79
2022/01/21 08:45:19;;;;;;;30.52;14.85;;;4.10;99.90;;;;;;5091091;28;20506;-82
2022/01/21 08:47:46;;;;;;;32.28;16.63;;;4.10;99.90;;;;;;5079351;28;20136;-78
2022/01/21 08:50:17;;;;;;;24.35;11.73;;;4.20;99.90;;;;;;5098757;28;20127;-77
2022/01/21 08:52:45;;;;;;;20.88;11.20;;;4.20;99.90;;;;;;5103922;28;20039;-79
2022/01/21 08:55:16;;;;;;;28.70;13.23;;;4.20;99.90;;;;;;5097244;28;20120;-79
2022/01/21 08:57:45;;;;;;;35.45;18.17;;;4.20;99.90;;;;;;5096895;28;20040;-80
2022/01/21 09:00:15;;;;;;;35.45;17.90;;;4.20;99.90;;;;;;5078455;28;20406;-78
2022/01/21 09:02:44;;;;;;;25.80;13.05;;;4.20;99.90;;;;;;5096993;28;20071;-78
2022/01/21 09:05:12;;;;;;;20.08;10.48;;;4.20;99.90;;;;;;5096447;28;20042;-78
2022/01/21 09:07:40;;;;;;;14.70;6.85;;;4.20;99.90;;;;;;5096956;28;20032;-79
2022/01/21 09:10:09;;;;;;;11.98;4.60;;;4.20;99.90;;;;;;5096947;28;20056;-81
2022/01/21 09:12:37;;;;;;;11.88;6.00;;;4.20;99.90;;;;;;5097050;28;20144;-81
2022/01/21 09:15:06;;;;;;;13.18;5.85;;;4.00;99.90;;;;;;5096210;28;20071;-82
2022/01/21 09:17:36;;;;;;;13.00;6.40;;;3.90;99.90;;;;;;5099109;28;20112;-82
2022/01/21 09:20:06;;;;;;;10.32;5.72;;;3.90;99.90;;;;;;5100203;28;20040;-82
2022/01/21 09:22:33;;;;;;;13.85;7.18;;;3.80;99.90;;;;;;5098778;28;20048;-81
2022/01/21 09:25:01;;;;;;;19.42;7.65;;;3.80;99.90;;;;;;5107338;22;20056;-79
2022/01/21 09:27:29;;;;;;;28.75;14.73;;;3.90;99.90;;;;;;5093382;28;20059;-81
2022/01/21 09:29:56;;;;;;;18.90;8.88;;;4.10;99.90;;;;;;5099349;28;20141;-81
2022/01/21 09:32:24;;;;;;;14.90;7.10;;;4.10;99.90;;;;;;5101753;28;20052;-79
2022/01/21 09:34:51;;;;;;;16.75;7.95;;;4.10;99.90;;;;;;5107810;28;20162;-81
2022/01/21 09:37:20;;;;;;;14.73;7.38;;;4.10;99.90;;;;;;5100913;28;20052;-82
2022/01/21 09:39:48;;;;;;;15.38;7.35;;;4.20;99.90;;;;;;5102660;28;20127;-79
2022/01/21 09:42:16;;;;;;;13.82;8.30;;;4.20;99.90;;;;;;5099824;28;20404;-80
2022/01/21 09:44:45;;;;;;;15.52;7.55;;;4.10;99.90;;;;;;5100201;28;20360;-80
2022/01/21 09:47:16;;;;;;;15.88;8.07;;;4.20;99.90;;;;;;5099628;28;20044;-83
2022/01/21 09:49:45;;;;;;;18.13;8.13;;;4.20;99.90;;;;;;5098718;28;20106;-80
2022/01/21 09:52:16;;;;;;;17.63;8.80;;;4.10;99.90;;;;;;5107885;28;20048;-80
2022/01/21 09:54:48;;;;;;;19.17;8.60;;;4.20;99.90;;;;;;5106716;28;20419;-81
2022/01/21 09:57:20;;;;;;;16.13;8.18;;;4.30;99.90;;;;;;5099383;28;20551;-81
2022/01/21 09:59:47;;;;;;;16.52;6.78;;;4.40;99.90;;;;;;5099148;28;20044;-80
2022/01/21 10:02:17;;;;;;;12.55;6.00;;;4.40;99.90;;;;;;5099316;28;20050;-81
2022/01/21 10:04:47;;;;;;;21.73;11.68;;;4.60;99.90;;;;;;5097870;28;20123;-80
2022/01/21 10:07:17;;;;;;;22.02;11.20;;;4.70;99.90;;;;;;5097461;28;20123;-82
2022/01/21 10:09:47;;;;;;;20.65;11.85;;;4.60;99.90;;;;;;5097467;28;20135;-81
2022/01/21 10:12:15;;;;;;;21.48;10.25;;;4.50;99.90;;;;;;5097168;28;20131;-79
2022/01/21 10:14:44;;;;;;;23.05;9.75;;;4.40;99.90;;;;;;5096461;28;20449;-79
2022/01/21 10:17:12;;;;;;;17.70;9.40;;;4.50;99.90;;;;;;5097361;28;20435;-79
2022/01/21 10:19:43;;;;;;;23.15;11.88;;;4.60;99.90;;;;;;5096125;28;20044;-80
2022/01/21 10:22:16;;;;;;;22.70;12.00;;;4.80;99.90;;;;;;5096819;28;20056;-82
2022/01/21 10:24:57;;;;;;;23.33;11.65;;;5.00;99.90;;;;;;5098602;28;20102;-80
2022/01/21 10:27:25;;;;;;;23.50;12.05;;;5.10;99.90;;;;;;5097556;28;20050;-81
2022/01/21 10:29:53;;;;;;;21.13;10.45;;;5.10;99.90;;;;;;5098746;28;20040;-80
2022/01/21 10:32:34;;;;;;;21.95;10.80;;;5.10;99.90;;;;;;5092861;28;20148;-82
2022/01/21 10:35:01;;;;;;;21.77;11.57;;;5.20;99.90;;;;;;5077143;28;20059;-79
2022/01/21 10:37:34;;;;;;;17.17;9.00;;;5.00;99.90;;;;;;5081568;28;20045;-81
2022/01/21 10:40:06;;;;;;;23.00;12.32;;;4.80;99.90;;;;;;5083854;28;20547;-80
2022/01/21 10:42:34;;;;;;;21.70;10.88;;;4.80;99.90;;;;;;5096801;28;20430;-81
2022/01/21 10:45:03;;;;;;;23.45;12.43;;;4.80;99.90;;;;;;5090574;28;20072;-78
2022/01/21 10:47:33;;;;;;;26.95;13.45;;;4.90;99.90;;;;;;5098386;28;20064;-81
2022/01/21 10:50:07;;;;;;;23.73;11.60;;;4.90;99.90;;;;;;5078691;28;20055;-81
2022/01/21 10:52:37;;;;;;;24.05;11.25;;;4.80;99.90;;;;;;5095433;28;20051;-82
2022/01/21 10:55:26;;;;;;;28.95;12.60;;;4.80;99.90;;;;;;5103878;28;20048;-79
2022/01/21 10:58:05;;;;;;;31.27;14.15;;;4.70;99.90;;;;;;5088483;28;20044;-81
2022/01/21 11:00:33;;;;;;;30.92;13.07;;;4.70;99.90;;;;;;5076539;28;20087;-81
2022/01/21 11:03:11;;;;;;;33.17;14.38;;;4.70;99.90;;;;;;5079194;28;20136;-82
2022/01/21 11:05:42;;;;;;;35.53;16.92;;;4.80;99.90;;;;;;5078005;28;20049;-82
2022/01/21 11:08:11;;;;;;;35.78;16.55;;;4.50;99.90;;;;;;5078905;28;20506;-80
2022/01/21 11:10:48;;;;;;;35.40;17.90;;;4.20;99.90;;;;;;5078651;28;20044;-81
2022/01/21 11:13:46;;;;;;;31.10;14.23;;;4.00;99.90;;;;;;5079187;28;20063;-82
2022/01/21 11:16:19;;;;;;;27.65;12.80;;;3.90;99.90;;;;;;5046385;28;20061;-80
2022/01/21 11:18:56;;;;;;;30.67;11.77;;;3.80;99.90;;;;;;5033837;28;20045;-81
2022/01/21 11:21:38;;;;;;;21.92;9.88;;;3.80;99.90;;;;;;5045610;28;20132;-79
2022/01/21 11:24:06;;;;;;;19.95;8.45;;;3.80;99.90;;;;;;5049182;28;20077;-78
2022/01/21 11:26:35;;;;;;;17.33;8.70;;;3.80;99.90;;;;;;5037988;28;20036;-80
2022/01/21 11:29:05;;;;;;;23.30;10.10;;;3.80;99.90;;;;;;5046489;28;20050;-81
2022/01/21 11:31:33;;;;;;;24.60;11.23;;;4.00;99.90;;;;;;5025317;28;20490;-81
2022/01/21 11:34:01;;;;;;;24.90;11.43;;;4.00;99.90;;;;;;5023402;28;20049;-81
2022/01/21 11:36:28;;;;;;;21.42;10.13;;;4.10;99.90;;;;;;5038772;28;20041;-81
2022/01/21 11:38:58;;;;;;;24.00;13.27;;;4.40;99.90;;;;;;5039268;28;20496;-81
2022/01/21 11:41:28;;;;;;;24.77;13.93;;;4.70;99.90;;;;;;5039641;28;20164;-81
2022/01/21 11:44:01;;;;;;;27.40;14.35;;;4.90;99.90;;;;;;5038875;28;20123;-81
2022/01/21 11:47:00;;;;;;;25.55;14.10;;;5.10;99.90;;;;;;5022083;28;20073;-81
2022/01/21 11:49:29;;;;;;;21.13;9.93;;;5.10;99.90;;;;;;5044395;28;20462;-80
2022/01/21 11:52:11;;;;;;;19.60;9.77;;;5.10;99.90;;;;;;5080967;28;20398;-80
2022/01/21 11:54:39;;;;;;;18.67;8.18;;;5.10;99.90;;;;;;5080624;28;20044;-80
2022/01/21 11:57:08;;;;;;;16.30;9.35;;;5.00;99.90;;;;;;5080701;28;20119;-82
2022/01/21 11:59:43;;;;;;;14.05;7.20;;;5.00;99.90;;;;;;5078740;28;20044;-80
2022/01/21 12:02:25;;;;;;;13.70;6.82;;;4.70;99.90;;;;;;5079407;28;20139;-81
2022/01/21 12:04:54;;;;;;;12.70;3.38;;;4.50;99.90;;;;;;5080431;28;20044;-78
2022/01/21 12:07:55;;;;;;;7.47;3.35;;;3.80;98.00;;;;;;5080899;28;20063;-78
2022/01/21 12:10:37;;;;;;;8.02;3.00;;;3.60;95.70;;;;;;5080265;28;20046;-80
2022/01/21 12:13:10;;;;;;;8.55;2.40;;;3.40;95.20;;;;;;5097933;28;20094;-81
2022/01/21 12:21:52;;;;;;;6.30;2.40;;;3.60;93.80;;;;;;5089781;28;20119;-82
2022/01/21 12:25:04;;;;;;;11.25;2.03;;;3.60;95.00;;;;;;5083711;28;20075;-82
2022/01/21 12:27:32;;;;;;;6.28;2.42;;;3.60;95.30;;;;;;5097357;28;20515;-79
2022/01/21 12:30:28;;;;;;;7.38;1.80;;;3.80;95.20;;;;;;5098135;28;20048;-80
2022/01/21 12:33:09;;;;;;;7.82;2.60;;;3.90;93.80;;;;;;5099219;28;20048;-79
2022/01/21 12:36:00;;;;;;;9.50;2.38;;;4.00;94.20;;;;;;5101898;28;20125;-78
2022/01/21 12:41:37;;;;;;;10.85;4.25;;;3.80;94.10;;;;;;5079798;28;20117;-79
2022/01/21 12:44:06;;;;;;;12.40;3.90;;;3.80;94.90;;;;;;5099034;28;20483;-79
2022/01/21 12:46:39;;;;;;;6.88;1.55;;;4.00;93.90;;;;;;5099468;28;20044;-79
2022/01/21 12:49:38;;;;;;;8.18;2.03;;;3.80;93.60;;;;;;5098471;28;20044;-78
2022/01/21 12:52:45;;;;;;;9.63;3.70;;;3.60;93.40;;;;;;5067517;28;20051;-76
2022/01/21 12:58:07;;;;;;;7.07;2.20;;;3.50;93.70;;;;;;5098946;28;20816;-79
2022/01/21 13:00:37;;;;;;;8.48;2.80;;;3.60;94.70;;;;;;5098894;28;20040;-78
2022/01/21 13:03:09;;;;;;;10.80;3.30;;;3.70;94.50;;;;;;5097268;28;20071;-80
2022/01/21 13:05:45;;;;;;;6.93;2.70;;;3.70;93.70;;;;;;5094772;28;20043;-78
2022/01/21 13:08:28;;;;;;;10.05;2.45;;;3.60;93.00;;;;;;5088847;28;20079;-81
2022/01/21 13:10:57;;;;;;;14.15;3.60;;;3.50;92.60;;;;;;5084630;28;20127;-77
2022/01/21 13:13:35;;;;;;;10.70;2.30;;;3.40;93.40;;;;;;5092043;28;20490;-79
2022/01/21 13:16:02;;;;;;;14.63;4.18;;;3.40;93.60;;;;;;5092100;28;20083;-77
2022/01/21 13:18:32;;;;;;;13.43;3.40;;;3.40;94.70;;;;;;5096138;28;20064;-79
2022/01/21 13:21:08;;;;;;;10.57;3.13;;;3.40;94.20;;;;;;5097183;28;20044;-77
2022/01/21 13:23:42;;;;;;;12.85;4.40;;;3.40;93.30;;;;;;5100340;28;20165;-78
2022/01/21 13:26:14;;;;;;;16.15;5.00;;;3.50;93.90;;;;;;5097271;28;20058;-81
2022/01/21 13:28:57;;;;;;;110.25;34.00;;;3.40;94.00;;;;;;5097750;28;20575;-80
2022/01/21 13:31:24;;;;;;;9.73;3.05;;;3.30;94.50;;;;;;5095910;28;20066;-79
2022/01/21 13:33:52;;;;;;;12.02;2.85;;;3.30;92.00;;;;;;5098497;28;20036;-78
2022/01/21 13:36:44;;;;;;;12.60;4.35;;;3.20;92.70;;;;;;5098418;28;20068;-78
2022/01/21 13:39:14;;;;;;;11.13;3.15;;;3.20;92.20;;;;;;5107048;28;20463;-81
2022/01/21 13:41:58;;;;;;;11.95;3.10;;;3.30;92.10;;;;;;5094026;28;20055;-80
2022/01/21 13:44:31;;;;;;;15.48;4.13;;;3.30;92.50;;;;;;5097783;28;20059;-80
2022/01/21 13:47:01;;;;;;;18.65;5.65;;;3.30;91.90;;;;;;5112453;28;20044;-79
2022/01/21 13:49:29;;;;;;;21.20;6.32;;;3.40;91.80;;;;;;5114023;28;20096;-78